sensor_id;sensor_type;location;lat;lon;timestamp;P1;durP1;ratioP1;P2;durP2;ratioP2
53618;SDS011;68717;53.040;18.488;2023-09-08T00:00:03;12.93;;;8.43;;
53618;SDS011;68717;53.040;18.488;2023-09-08T00:00:17;13.95;;;8.68;;
53618;SDS011;68717;53.040;18.488;2023-09-08T00:00:51;12.02;;;8.18;;
53618;SDS011;68717;53.040;18.488;2023-09-08T00:01:16;12.20;;;8.38;;
53618;SDS011;68717;53.040;18.488;2023-09-08T00:01:29;12.82;;;8.43;;
53618;SDS011;68717;53.040;18.488;2023-09-08T00:01:43;15.18;;;8.57;;
53618;SDS011;68717;53.040;18.488;2023-09-08T00:01:56;15.85;;;8.40;;
53618;SDS011;68717;53.040;18.488;2023-09-08T00:02:08;15.27;;;8.48;;
53618;SDS011;68717;53.040;18.488;2023-09-08T00:02:22;11.07;;;7.93;;
53618;SDS011;68717;53.040;18.488;2023-09-08T00:02:36;11.32;;;8.23;;
53618;SDS011;68717;53.040;18.488;2023-09-08T00:02:49;13.15;;;8.48;;
53618;SDS011;68717;53.040;18.488;2023-09-08T00:03:02;13.57;;;8.80;;
53618;SDS011;68717;53.040;18.488;2023-09-08T00:03:15;12.90;;;8.73;;
53618;SDS011;68717;53.040;18.488;2023-09-08T00:03:27;12.18;;;8.35;;
53618;SDS011;68717;53.040;18.488;2023-09-08T00:03:41;12.00;;;8.07;;
53618;SDS011;68717;53.040;18.488;2023-09-08T00:03:54;11.35;;;8.02;;
53618;SDS011;68717;53.040;18.488;2023-09-08T00:04:07;11.35;;;8.20;;
53618;SDS011;68717;53.040;18.488;2023-09-08T00:04:20;11.82;;;8.38;;
53618;SDS011;68717;53.040;18.488;2023-09-08T00:04:33;12.00;;;8.50;;
53618;SDS011;68717;53.040;18.488;2023-09-08T00:04:45;11.45;;;8.32;;
53618;SDS011;68717;53.040;18.488;2023-09-08T00:04:58;10.85;;;8.00;;
53618;SDS011;68717;53.040;18.488;2023-09-08T00:05:11;11.15;;;8.00;;
53618;SDS011;68717;53.040;18.488;2023-09-08T00:05:23;11.25;;;8.18;;
53618;SDS011;68717;53.040;18.488;2023-09-08T00:05:37;12.10;;;8.35;;
53618;SDS011;68717;53.040;18.488;2023-09-08T00:05:50;12.25;;;8.30;;
53618;SDS011;68717;53.040;18.488;2023-09-08T00:06:02;11.73;;;8.18;;
53618;SDS011;68717;53.040;18.488;2023-09-08T00:06:16;11.65;;;8.05;;
53618;SDS011;68717;53.040;18.488;2023-09-08T00:06:29;11.00;;;8.00;;
53618;SDS011;68717;53.040;18.488;2023-09-08T00:06:41;10.38;;;8.00;;
53618;SDS011;68717;53.040;18.488;2023-09-08T00:06:54;11.30;;;8.38;;
53618;SDS011;68717;53.040;18.488;2023-09-08T00:07:07;12.98;;;8.45;;
53618;SDS011;68717;53.040;18.488;2023-09-08T00:07:19;12.55;;;8.18;;
53618;SDS011;68717;53.040;18.488;2023-09-08T00:07:33;11.98;;;8.40;;
53618;SDS011;68717;53.040;18.488;2023-09-08T00:07:46;11.80;;;8.52;;
53618;SDS011;68717;53.040;18.488;2023-09-08T00:07:59;11.60;;;8.40;;
53618;SDS011;68717;53.040;18.488;2023-09-08T00:08:11;11.60;;;7.93;;
53618;SDS011;68717;53.040;18.488;2023-09-08T00:08:24;12.00;;;8.07;;
53618;SDS011;68717;53.040;18.488;2023-09-08T00:08:36;11.95;;;8.18;;
53618;SDS011;68717;53.040;18.488;2023-09-08T00:08:49;12.30;;;8.13;;
53618;SDS011;68717;53.040;18.488;2023-09-08T00:09:03;12.48;;;8.30;;
53618;SDS011;68717;53.040;18.488;2023-09-08T00:09:16;11.68;;;8.15;;
53618;SDS011;68717;53.040;18.488;2023-09-08T00:09:28;11.30;;;8.15;;
53618;SDS011;68717;53.040;18.488;2023-09-08T00:09:41;11.40;;;8.23;;
53618;SDS011;68717;53.040;18.488;2023-09-08T00:09:53;12.55;;;8.50;;
53618;SDS011;68717;53.040;18.488;2023-09-08T00:10:06;12.40;;;8.52;;
53618;SDS011;68717;53.040;18.488;2023-09-08T00:10:19;11.85;;;8.38;;
53618;SDS011;68717;53.040;18.488;2023-09-08T00:10:32;12.18;;;8.38;;
53618;SDS011;68717;53.040;18.488;2023-09-08T00:10:46;12.75;;;8.40;;
53618;SDS011;68717;53.040;18.488;2023-09-08T00:10:58;13.07;;;8.68;;
53618;SDS011;68717;53.040;18.488;2023-09-08T00:11:11;12.70;;;8.52;;
53618;SDS011;68717;53.040;18.488;2023-09-08T00:11:24;13.55;;;8.38;;
53618;SDS011;68717;53.040;18.488;2023-09-08T00:11:36;14.25;;;8.02;;
53618;SDS011;68717;53.040;18.488;2023-09-08T00:11:49;13.43;;;8.10;;
53618;SDS011;68717;53.040;18.488;2023-09-08T00:12:01;12.70;;;8.32;;
53618;SDS011;68717;53.040;18.488;2023-09-08T00:12:14;12.52;;;8.40;;
53618;SDS011;68717;53.040;18.488;2023-09-08T00:12:27;11.93;;;8.60;;
53618;SDS011;68717;53.040;18.488;2023-09-08T00:12:41;12.18;;;8.68;;
53618;SDS011;68717;53.040;18.488;2023-09-08T00:12:54;12.52;;;8.68;;
53618;SDS011;68717;53.040;18.488;2023-09-08T00:13:06;12.30;;;8.45;;
53618;SDS011;68717;53.040;18.488;2023-09-08T00:13:20;12.48;;;8.50;;
53618;SDS011;68717;53.040;18.488;2023-09-08T00:13:33;11.43;;;8.00;;
53618;SDS011;68717;53.040;18.488;2023-09-08T00:13:45;12.30;;;8.13;;
53618;SDS011;68717;53.040;18.488;2023-09-08T00:13:58;12.90;;;8.48;;
53618;SDS011;68717;53.040;18.488;2023-09-08T00:14:11;12.80;;;8.68;;
53618;SDS011;68717;53.040;18.488;2023-09-08T00:14:23;12.50;;;8.63;;
53618;SDS011;68717;53.040;18.488;2023-09-08T00:14:37;12.65;;;8.50;;
53618;SDS011;68717;53.040;18.488;2023-09-08T00:14:50;12.23;;;8.32;;
53618;SDS011;68717;53.040;18.488;2023-09-08T00:15:03;12.30;;;8.20;;
53618;SDS011;68717;53.040;18.488;2023-09-08T00:15:16;12.00;;;8.25;;
53618;SDS011;68717;53.040;18.488;2023-09-08T00:15:29;11.60;;;8.13;;
53618;SDS011;68717;53.040;18.488;2023-09-08T00:15:42;11.48;;;8.30;;
53618;SDS011;68717;53.040;18.488;2023-09-08T00:15:56;11.32;;;8.25;;
53618;SDS011;68717;53.040;18.488;2023-09-08T00:16:08;11.00;;;8.10;;
53618;SDS011;68717;53.040;18.488;2023-09-08T00:16:22;11.70;;;8.38;;
53618;SDS011;68717;53.040;18.488;2023-09-08T00:16:36;11.85;;;8.35;;
53618;SDS011;68717;53.040;18.488;2023-09-08T00:16:51;11.85;;;8.15;;
53618;SDS011;68717;53.040;18.488;2023-09-08T00:17:06;12.25;;;8.20;;
53618;SDS011;68717;53.040;18.488;2023-09-08T00:17:19;11.93;;;8.02;;
53618;SDS011;68717;53.040;18.488;2023-09-08T00:17:31;13.27;;;8.50;;
53618;SDS011;68717;53.040;18.488;2023-09-08T00:17:44;13.98;;;8.68;;
53618;SDS011;68717;53.040;18.488;2023-09-08T00:17:59;13.02;;;8.95;;
53618;SDS011;68717;53.040;18.488;2023-09-08T00:18:12;12.77;;;9.10;;
53618;SDS011;68717;53.040;18.488;2023-09-08T00:18:25;13.13;;;8.85;;
53618;SDS011;68717;53.040;18.488;2023-09-08T00:18:38;12.52;;;8.30;;
53618;SDS011;68717;53.040;18.488;2023-09-08T00:18:51;11.32;;;8.00;;
53618;SDS011;68717;53.040;18.488;2023-09-08T00:19:03;10.93;;;8.05;;
53618;SDS011;68717;53.040;18.488;2023-09-08T00:19:16;12.07;;;8.10;;
53618;SDS011;68717;53.040;18.488;2023-09-08T00:19:28;12.30;;;8.27;;
53618;SDS011;68717;53.040;18.488;2023-09-08T00:19:41;11.98;;;8.30;;
53618;SDS011;68717;53.040;18.488;2023-09-08T00:19:54;11.23;;;8.30;;
53618;SDS011;68717;53.040;18.488;2023-09-08T00:20:07;12.18;;;8.63;;
53618;SDS011;68717;53.040;18.488;2023-09-08T00:20:20;13.63;;;9.15;;
53618;SDS011;68717;53.040;18.488;2023-09-08T00:20:34;14.48;;;9.20;;
53618;SDS011;68717;53.040;18.488;2023-09-08T00:20:48;13.63;;;8.70;;
53618;SDS011;68717;53.040;18.488;2023-09-08T00:21:00;13.98;;;8.70;;
53618;SDS011;68717;53.040;18.488;2023-09-08T00:21:13;13.45;;;8.55;;
53618;SDS011;68717;53.040;18.488;2023-09-08T00:21:26;12.57;;;8.45;;
53618;SDS011;68717;53.040;18.488;2023-09-08T00:21:39;12.32;;;8.35;;
53618;SDS011;68717;53.040;18.488;2023-09-08T00:21:51;12.15;;;8.35;;
53618;SDS011;68717;53.040;18.488;2023-09-08T00:22:04;12.13;;;8.63;;
53618;SDS011;68717;53.040;18.488;2023-09-08T00:22:18;10.95;;;8.32;;
53618;SDS011;68717;53.040;18.488;2023-09-08T00:22:31;11.82;;;8.30;;
53618;SDS011;68717;53.040;18.488;2023-09-08T00:22:45;13.02;;;8.35;;
53618;SDS011;68717;53.040;18.488;2023-09-08T00:22:57;13.48;;;8.38;;
53618;SDS011;68717;53.040;18.488;2023-09-08T00:23:10;12.48;;;8.77;;
53618;SDS011;68717;53.040;18.488;2023-09-08T00:23:22;11.88;;;8.80;;
53618;SDS011;68717;53.040;18.488;2023-09-08T00:23:35;12.57;;;8.82;;
53618;SDS011;68717;53.040;18.488;2023-09-08T00:23:48;11.30;;;8.25;;
53618;SDS011;68717;53.040;18.488;2023-09-08T00:24:00;10.80;;;7.93;;
53618;SDS011;68717;53.040;18.488;2023-09-08T00:24:14;10.45;;;7.90;;
53618;SDS011;68717;53.040;18.488;2023-09-08T00:24:27;10.55;;;7.85;;
53618;SDS011;68717;53.040;18.488;2023-09-08T00:24:39;11.70;;;8.05;;
53618;SDS011;68717;53.040;18.488;2023-09-08T00:24:52;12.50;;;8.15;;
53618;SDS011;68717;53.040;18.488;2023-09-08T00:25:05;12.15;;;7.93;;
53618;SDS011;68717;53.040;18.488;2023-09-08T00:25:18;11.63;;;8.02;;
53618;SDS011;68717;53.040;18.488;2023-09-08T00:25:31;11.57;;;8.20;;
53618;SDS011;68717;53.040;18.488;2023-09-08T00:25:43;12.90;;;8.63;;
53618;SDS011;68717;53.040;18.488;2023-09-08T00:25:56;12.27;;;8.52;;
53618;SDS011;68717;53.040;18.488;2023-09-08T00:26:11;10.82;;;8.07;;
53618;SDS011;68717;53.040;18.488;2023-09-08T00:26:23;11.30;;;7.95;;
53618;SDS011;68717;53.040;18.488;2023-09-08T00:26:36;12.63;;;8.38;;
53618;SDS011;68717;53.040;18.488;2023-09-08T00:26:49;12.50;;;8.73;;
53618;SDS011;68717;53.040;18.488;2023-09-08T00:27:01;12.30;;;8.80;;
53618;SDS011;68717;53.040;18.488;2023-09-08T00:27:14;12.20;;;8.32;;
53618;SDS011;68717;53.040;18.488;2023-09-08T00:27:27;12.15;;;8.05;;
53618;SDS011;68717;53.040;18.488;2023-09-08T00:27:40;12.15;;;8.10;;
53618;SDS011;68717;53.040;18.488;2023-09-08T00:27:52;11.68;;;8.32;;
53618;SDS011;68717;53.040;18.488;2023-09-08T00:28:05;12.10;;;8.30;;
53618;SDS011;68717;53.040;18.488;2023-09-08T00:28:20;13.98;;;8.43;;
53618;SDS011;68717;53.040;18.488;2023-09-08T00:28:32;13.48;;;8.35;;
53618;SDS011;68717;53.040;18.488;2023-09-08T00:28:45;11.00;;;8.13;;
53618;SDS011;68717;53.040;18.488;2023-09-08T00:28:58;11.40;;;8.07;;
53618;SDS011;68717;53.040;18.488;2023-09-08T00:29:10;13.77;;;8.35;;
53618;SDS011;68717;53.040;18.488;2023-09-08T00:29:23;13.88;;;8.40;;
53618;SDS011;68717;53.040;18.488;2023-09-08T00:29:36;12.52;;;8.48;;
53618;SDS011;68717;53.040;18.488;2023-09-08T00:29:49;12.75;;;8.65;;
53618;SDS011;68717;53.040;18.488;2023-09-08T00:30:02;12.65;;;8.43;;
53618;SDS011;68717;53.040;18.488;2023-09-08T00:30:15;11.68;;;8.07;;
53618;SDS011;68717;53.040;18.488;2023-09-08T00:30:28;12.02;;;8.02;;
53618;SDS011;68717;53.040;18.488;2023-09-08T00:30:41;11.90;;;8.02;;
53618;SDS011;68717;53.040;18.488;2023-09-08T00:30:56;12.02;;;8.15;;
53618;SDS011;68717;53.040;18.488;2023-09-08T00:31:09;12.32;;;8.30;;
53618;SDS011;68717;53.040;18.488;2023-09-08T00:31:22;13.25;;;8.60;;
53618;SDS011;68717;53.040;18.488;2023-09-08T00:31:34;13.68;;;8.80;;
53618;SDS011;68717;53.040;18.488;2023-09-08T00:31:47;12.07;;;8.68;;
53618;SDS011;68717;53.040;18.488;2023-09-08T00:32:01;11.35;;;8.45;;
53618;SDS011;68717;53.040;18.488;2023-09-08T00:32:13;12.57;;;8.60;;
53618;SDS011;68717;53.040;18.488;2023-09-08T00:32:26;13.25;;;8.60;;
53618;SDS011;68717;53.040;18.488;2023-09-08T00:32:39;14.65;;;8.73;;
53618;SDS011;68717;53.040;18.488;2023-09-08T00:32:51;14.00;;;8.40;;
53618;SDS011;68717;53.040;18.488;2023-09-08T00:33:04;13.43;;;8.55;;
53618;SDS011;68717;53.040;18.488;2023-09-08T00:33:21;12.60;;;8.80;;
53618;SDS011;68717;53.040;18.488;2023-09-08T00:33:34;12.02;;;8.80;;
53618;SDS011;68717;53.040;18.488;2023-09-08T00:33:47;11.38;;;8.55;;
53618;SDS011;68717;53.040;18.488;2023-09-08T00:34:01;10.48;;;8.25;;
53618;SDS011;68717;53.040;18.488;2023-09-08T00:34:14;10.82;;;8.15;;
53618;SDS011;68717;53.040;18.488;2023-09-08T00:34:27;11.98;;;8.40;;
53618;SDS011;68717;53.040;18.488;2023-09-08T00:34:40;12.30;;;8.15;;
53618;SDS011;68717;53.040;18.488;2023-09-08T00:34:53;12.45;;;8.38;;
53618;SDS011;68717;53.040;18.488;2023-09-08T00:35:06;11.90;;;8.65;;
53618;SDS011;68717;53.040;18.488;2023-09-08T00:35:19;11.85;;;8.48;;
53618;SDS011;68717;53.040;18.488;2023-09-08T00:35:31;12.95;;;8.50;;
53618;SDS011;68717;53.040;18.488;2023-09-08T00:35:48;13.52;;;8.45;;
53618;SDS011;68717;53.040;18.488;2023-09-08T00:36:00;12.73;;;8.70;;
53618;SDS011;68717;53.040;18.488;2023-09-08T00:36:13;12.00;;;8.75;;
53618;SDS011;68717;53.040;18.488;2023-09-08T00:36:27;12.10;;;8.80;;
53618;SDS011;68717;53.040;18.488;2023-09-08T00:36:39;12.10;;;8.80;;
53618;SDS011;68717;53.040;18.488;2023-09-08T00:36:52;11.73;;;8.65;;
53618;SDS011;68717;53.040;18.488;2023-09-08T00:37:04;11.93;;;8.55;;
53618;SDS011;68717;53.040;18.488;2023-09-08T00:37:19;12.02;;;8.40;;
53618;SDS011;68717;53.040;18.488;2023-09-08T00:37:32;13.63;;;8.68;;
53618;SDS011;68717;53.040;18.488;2023-09-08T00:37:44;14.07;;;8.82;;
53618;SDS011;68717;53.040;18.488;2023-09-08T00:37:57;13.27;;;8.80;;
53618;SDS011;68717;53.040;18.488;2023-09-08T00:38:10;12.48;;;8.57;;
53618;SDS011;68717;53.040;18.488;2023-09-08T00:38:22;13.10;;;8.60;;
53618;SDS011;68717;53.040;18.488;2023-09-08T00:38:35;13.75;;;8.60;;
53618;SDS011;68717;53.040;18.488;2023-09-08T00:38:48;13.63;;;8.68;;
53618;SDS011;68717;53.040;18.488;2023-09-08T00:39:02;12.85;;;8.65;;
53618;SDS011;68717;53.040;18.488;2023-09-08T00:39:16;12.45;;;8.55;;
53618;SDS011;68717;53.040;18.488;2023-09-08T00:39:28;12.52;;;8.38;;
53618;SDS011;68717;53.040;18.488;2023-09-08T00:39:41;13.18;;;8.75;;
53618;SDS011;68717;53.040;18.488;2023-09-08T00:39:53;13.30;;;8.80;;
53618;SDS011;68717;53.040;18.488;2023-09-08T00:40:06;13.00;;;8.70;;
53618;SDS011;68717;53.040;18.488;2023-09-08T00:40:20;12.25;;;8.75;;
53618;SDS011;68717;53.040;18.488;2023-09-08T00:40:33;13.45;;;8.70;;
53618;SDS011;68717;53.040;18.488;2023-09-08T00:40:45;14.77;;;8.77;;
53618;SDS011;68717;53.040;18.488;2023-09-08T00:40:59;14.52;;;8.82;;
53618;SDS011;68717;53.040;18.488;2023-09-08T00:41:12;12.90;;;8.73;;
53618;SDS011;68717;53.040;18.488;2023-09-08T00:41:25;12.75;;;8.65;;
53618;SDS011;68717;53.040;18.488;2023-09-08T00:41:38;13.07;;;8.80;;
53618;SDS011;68717;53.040;18.488;2023-09-08T00:41:51;13.82;;;8.95;;
53618;SDS011;68717;53.040;18.488;2023-09-08T00:42:04;14.20;;;9.00;;
53618;SDS011;68717;53.040;18.488;2023-09-08T00:42:17;13.70;;;9.23;;
53618;SDS011;68717;53.040;18.488;2023-09-08T00:42:29;14.00;;;9.25;;
53618;SDS011;68717;53.040;18.488;2023-09-08T00:42:43;13.25;;;8.73;;
53618;SDS011;68717;53.040;18.488;2023-09-08T00:42:56;14.77;;;9.45;;
53618;SDS011;68717;53.040;18.488;2023-09-08T00:43:08;13.93;;;9.32;;
53618;SDS011;68717;53.040;18.488;2023-09-08T00:43:21;13.10;;;8.45;;
53618;SDS011;68717;53.040;18.488;2023-09-08T00:43:34;13.65;;;8.55;;
53618;SDS011;68717;53.040;18.488;2023-09-08T00:43:47;14.40;;;8.88;;
53618;SDS011;68717;53.040;18.488;2023-09-08T00:43:59;13.63;;;8.95;;
53618;SDS011;68717;53.040;18.488;2023-09-08T00:44:12;12.18;;;8.90;;
53618;SDS011;68717;53.040;18.488;2023-09-08T00:44:25;12.48;;;8.68;;
53618;SDS011;68717;53.040;18.488;2023-09-08T00:44:38;12.10;;;8.57;;
53618;SDS011;68717;53.040;18.488;2023-09-08T00:44:51;11.82;;;8.50;;
53618;SDS011;68717;53.040;18.488;2023-09-08T00:45:04;12.23;;;8.77;;
53618;SDS011;68717;53.040;18.488;2023-09-08T00:45:17;11.88;;;8.70;;
53618;SDS011;68717;53.040;18.488;2023-09-08T00:45:30;15.85;;;8.85;;
53618;SDS011;68717;53.040;18.488;2023-09-08T00:45:43;17.00;;;8.93;;
53618;SDS011;68717;53.040;18.488;2023-09-08T00:45:59;14.70;;;8.73;;
53618;SDS011;68717;53.040;18.488;2023-09-08T00:46:15;13.70;;;8.45;;
53618;SDS011;68717;53.040;18.488;2023-09-08T00:46:30;14.32;;;8.68;;
53618;SDS011;68717;53.040;18.488;2023-09-08T00:46:42;14.50;;;8.82;;
53618;SDS011;68717;53.040;18.488;2023-09-08T00:46:55;13.40;;;8.55;;
53618;SDS011;68717;53.040;18.488;2023-09-08T00:47:08;12.48;;;8.45;;
53618;SDS011;68717;53.040;18.488;2023-09-08T00:47:21;12.40;;;8.73;;
53618;SDS011;68717;53.040;18.488;2023-09-08T00:47:34;12.38;;;8.70;;
53618;SDS011;68717;53.040;18.488;2023-09-08T00:47:47;13.07;;;8.93;;
53618;SDS011;68717;53.040;18.488;2023-09-08T00:48:00;13.05;;;9.13;;
53618;SDS011;68717;53.040;18.488;2023-09-08T00:48:12;13.30;;;9.02;;
53618;SDS011;68717;53.040;18.488;2023-09-08T00:48:26;14.05;;;8.93;;
53618;SDS011;68717;53.040;18.488;2023-09-08T00:48:39;13.35;;;8.85;;
53618;SDS011;68717;53.040;18.488;2023-09-08T00:48:52;12.57;;;8.90;;
53618;SDS011;68717;53.040;18.488;2023-09-08T00:49:04;12.98;;;9.00;;
53618;SDS011;68717;53.040;18.488;2023-09-08T00:49:18;13.45;;;9.05;;
53618;SDS011;68717;53.040;18.488;2023-09-08T00:49:31;13.13;;;9.00;;
53618;SDS011;68717;53.040;18.488;2023-09-08T00:49:43;13.02;;;9.05;;
53618;SDS011;68717;53.040;18.488;2023-09-08T00:49:56;13.32;;;8.85;;
53618;SDS011;68717;53.040;18.488;2023-09-08T00:50:09;12.98;;;8.38;;
53618;SDS011;68717;53.040;18.488;2023-09-08T00:50:24;13.93;;;8.63;;
53618;SDS011;68717;53.040;18.488;2023-09-08T00:50:37;14.20;;;8.80;;
53618;SDS011;68717;53.040;18.488;2023-09-08T00:50:51;12.90;;;8.77;;
53618;SDS011;68717;53.040;18.488;2023-09-08T00:51:03;12.68;;;8.60;;
53618;SDS011;68717;53.040;18.488;2023-09-08T00:51:17;12.63;;;8.55;;
53618;SDS011;68717;53.040;18.488;2023-09-08T00:51:31;12.23;;;8.52;;
53618;SDS011;68717;53.040;18.488;2023-09-08T00:51:43;11.70;;;8.52;;
53618;SDS011;68717;53.040;18.488;2023-09-08T00:51:56;12.57;;;8.65;;
53618;SDS011;68717;53.040;18.488;2023-09-08T00:52:09;13.65;;;8.93;;
53618;SDS011;68717;53.040;18.488;2023-09-08T00:52:22;13.40;;;8.70;;
53618;SDS011;68717;53.040;18.488;2023-09-08T00:52:36;13.95;;;8.77;;
53618;SDS011;68717;53.040;18.488;2023-09-08T00:52:49;13.95;;;8.73;;
53618;SDS011;68717;53.040;18.488;2023-09-08T00:53:02;13.85;;;8.45;;
53618;SDS011;68717;53.040;18.488;2023-09-08T00:53:15;14.25;;;8.55;;
53618;SDS011;68717;53.040;18.488;2023-09-08T00:53:27;13.85;;;9.00;;
53618;SDS011;68717;53.040;18.488;2023-09-08T00:53:40;14.13;;;9.43;;
53618;SDS011;68717;53.040;18.488;2023-09-08T00:53:53;13.50;;;9.25;;
53618;SDS011;68717;53.040;18.488;2023-09-08T00:54:07;13.52;;;9.05;;
53618;SDS011;68717;53.040;18.488;2023-09-08T00:54:21;12.68;;;8.70;;
53618;SDS011;68717;53.040;18.488;2023-09-08T00:54:33;12.00;;;8.55;;
53618;SDS011;68717;53.040;18.488;2023-09-08T00:54:46;12.23;;;8.55;;
53618;SDS011;68717;53.040;18.488;2023-09-08T00:54:59;14.60;;;8.85;;
53618;SDS011;68717;53.040;18.488;2023-09-08T00:55:11;14.20;;;8.95;;
53618;SDS011;68717;53.040;18.488;2023-09-08T00:55:24;13.35;;;8.70;;
53618;SDS011;68717;53.040;18.488;2023-09-08T00:55:37;12.38;;;8.50;;
53618;SDS011;68717;53.040;18.488;2023-09-08T00:55:52;12.23;;;8.75;;
53618;SDS011;68717;53.040;18.488;2023-09-08T00:56:08;13.00;;;8.93;;
53618;SDS011;68717;53.040;18.488;2023-09-08T00:56:22;13.35;;;8.90;;
53618;SDS011;68717;53.040;18.488;2023-09-08T00:56:34;13.35;;;8.85;;
53618;SDS011;68717;53.040;18.488;2023-09-08T00:56:49;12.55;;;8.73;;
53618;SDS011;68717;53.040;18.488;2023-09-08T00:57:07;12.70;;;8.60;;
53618;SDS011;68717;53.040;18.488;2023-09-08T00:57:22;12.73;;;8.73;;
53618;SDS011;68717;53.040;18.488;2023-09-08T00:57:34;13.35;;;8.68;;
53618;SDS011;68717;53.040;18.488;2023-09-08T00:57:47;14.63;;;8.88;;
53618;SDS011;68717;53.040;18.488;2023-09-08T00:58:00;15.43;;;9.25;;
53618;SDS011;68717;53.040;18.488;2023-09-08T00:58:14;15.65;;;9.27;;
53618;SDS011;68717;53.040;18.488;2023-09-08T00:58:27;14.27;;;9.20;;
53618;SDS011;68717;53.040;18.488;2023-09-08T00:58:40;13.65;;;9.00;;
53618;SDS011;68717;53.040;18.488;2023-09-08T00:58:53;13.52;;;8.95;;
53618;SDS011;68717;53.040;18.488;2023-09-08T00:59:06;13.75;;;9.07;;
53618;SDS011;68717;53.040;18.488;2023-09-08T00:59:19;13.52;;;8.68;;
53618;SDS011;68717;53.040;18.488;2023-09-08T00:59:32;13.73;;;9.00;;
53618;SDS011;68717;53.040;18.488;2023-09-08T00:59:47;13.30;;;9.25;;
53618;SDS011;68717;53.040;18.488;2023-09-08T00:59:59;13.55;;;9.02;;
53618;SDS011;68717;53.040;18.488;2023-09-08T01:00:14;13.25;;;8.73;;
53618;SDS011;68717;53.040;18.488;2023-09-08T01:00:28;12.65;;;8.60;;
53618;SDS011;68717;53.040;18.488;2023-09-08T01:00:40;13.40;;;9.00;;
53618;SDS011;68717;53.040;18.488;2023-09-08T01:00:53;13.65;;;9.20;;
53618;SDS011;68717;53.040;18.488;2023-09-08T01:01:08;13.65;;;9.32;;
53618;SDS011;68717;53.040;18.488;2023-09-08T01:01:21;13.60;;;9.02;;
53618;SDS011;68717;53.040;18.488;2023-09-08T01:01:34;15.75;;;9.13;;
53618;SDS011;68717;53.040;18.488;2023-09-08T01:01:47;16.67;;;9.50;;
53618;SDS011;68717;53.040;18.488;2023-09-08T01:02:01;15.85;;;9.43;;
53618;SDS011;68717;53.040;18.488;2023-09-08T01:02:14;15.95;;;9.23;;
53618;SDS011;68717;53.040;18.488;2023-09-08T01:02:27;15.10;;;8.85;;
53618;SDS011;68717;53.040;18.488;2023-09-08T01:02:40;15.30;;;9.02;;
53618;SDS011;68717;53.040;18.488;2023-09-08T01:02:52;15.40;;;9.40;;
53618;SDS011;68717;53.040;18.488;2023-09-08T01:03:05;15.05;;;9.68;;
53618;SDS011;68717;53.040;18.488;2023-09-08T01:03:19;14.25;;;9.32;;
53618;SDS011;68717;53.040;18.488;2023-09-08T01:03:32;13.43;;;8.85;;
53618;SDS011;68717;53.040;18.488;2023-09-08T01:03:46;13.35;;;8.52;;
53618;SDS011;68717;53.040;18.488;2023-09-08T01:03:59;13.93;;;8.70;;
53618;SDS011;68717;53.040;18.488;2023-09-08T01:04:12;15.95;;;9.18;;
53618;SDS011;68717;53.040;18.488;2023-09-08T01:04:25;16.27;;;9.50;;
53618;SDS011;68717;53.040;18.488;2023-09-08T01:04:37;16.52;;;9.50;;
53618;SDS011;68717;53.040;18.488;2023-09-08T01:04:53;16.58;;;9.75;;
53618;SDS011;68717;53.040;18.488;2023-09-08T01:05:06;16.27;;;9.98;;
53618;SDS011;68717;53.040;18.488;2023-09-08T01:05:19;17.25;;;10.20;;
53618;SDS011;68717;53.040;18.488;2023-09-08T01:05:33;17.48;;;10.00;;
53618;SDS011;68717;53.040;18.488;2023-09-08T01:05:46;16.75;;;9.48;;
53618;SDS011;68717;53.040;18.488;2023-09-08T01:06:00;16.80;;;10.10;;
53618;SDS011;68717;53.040;18.488;2023-09-08T01:06:13;18.52;;;10.85;;
53618;SDS011;68717;53.040;18.488;2023-09-08T01:06:27;17.95;;;10.40;;
53618;SDS011;68717;53.040;18.488;2023-09-08T01:06:40;16.15;;;9.75;;
53618;SDS011;68717;53.040;18.488;2023-09-08T01:06:53;16.20;;;9.40;;
53618;SDS011;68717;53.040;18.488;2023-09-08T01:07:08;17.27;;;9.32;;
53618;SDS011;68717;53.040;18.488;2023-09-08T01:07:22;18.08;;;9.73;;
53618;SDS011;68717;53.040;18.488;2023-09-08T01:07:35;17.25;;;9.77;;
53618;SDS011;68717;53.040;18.488;2023-09-08T01:07:47;19.25;;;9.93;;
53618;SDS011;68717;53.040;18.488;2023-09-08T01:08:01;19.95;;;10.52;;
53618;SDS011;68717;53.040;18.488;2023-09-08T01:08:14;20.48;;;10.95;;
53618;SDS011;68717;53.040;18.488;2023-09-08T01:08:28;19.73;;;11.10;;
53618;SDS011;68717;53.040;18.488;2023-09-08T01:08:41;19.17;;;10.77;;
53618;SDS011;68717;53.040;18.488;2023-09-08T01:08:56;19.70;;;10.82;;
53618;SDS011;68717;53.040;18.488;2023-09-08T01:09:09;22.42;;;10.95;;
53618;SDS011;68717;53.040;18.488;2023-09-08T01:09:23;21.58;;;10.50;;
53618;SDS011;68717;53.040;18.488;2023-09-08T01:09:37;18.77;;;9.90;;
53618;SDS011;68717;53.040;18.488;2023-09-08T01:09:50;17.73;;;10.02;;
53618;SDS011;68717;53.040;18.488;2023-09-08T01:10:03;18.58;;;10.60;;
53618;SDS011;68717;53.040;18.488;2023-09-08T01:10:18;19.42;;;10.90;;
53618;SDS011;68717;53.040;18.488;2023-09-08T01:10:31;17.92;;;10.68;;
53618;SDS011;68717;53.040;18.488;2023-09-08T01:10:45;18.88;;;10.57;;
53618;SDS011;68717;53.040;18.488;2023-09-08T01:10:58;19.88;;;10.40;;
53618;SDS011;68717;53.040;18.488;2023-09-08T01:11:11;18.80;;;10.48;;
53618;SDS011;68717;53.040;18.488;2023-09-08T01:11:24;19.17;;;10.65;;
53618;SDS011;68717;53.040;18.488;2023-09-08T01:11:38;18.30;;;10.75;;
53618;SDS011;68717;53.040;18.488;2023-09-08T01:11:51;18.52;;;10.50;;
53618;SDS011;68717;53.040;18.488;2023-09-08T01:12:04;18.15;;;10.45;;
53618;SDS011;68717;53.040;18.488;2023-09-08T01:12:18;16.60;;;10.02;;
53618;SDS011;68717;53.040;18.488;2023-09-08T01:12:32;16.08;;;9.93;;
53618;SDS011;68717;53.040;18.488;2023-09-08T01:12:47;16.63;;;10.02;;
53618;SDS011;68717;53.040;18.488;2023-09-08T01:12:59;18.00;;;10.23;;
53618;SDS011;68717;53.040;18.488;2023-09-08T01:13:12;17.98;;;10.48;;
53618;SDS011;68717;53.040;18.488;2023-09-08T01:13:25;18.52;;;10.52;;
53618;SDS011;68717;53.040;18.488;2023-09-08T01:13:37;19.00;;;10.48;;
53618;SDS011;68717;53.040;18.488;2023-09-08T01:13:50;18.27;;;10.52;;
53618;SDS011;68717;53.040;18.488;2023-09-08T01:14:03;17.00;;;10.45;;
53618;SDS011;68717;53.040;18.488;2023-09-08T01:14:17;17.58;;;10.60;;
53618;SDS011;68717;53.040;18.488;2023-09-08T01:14:30;19.73;;;11.05;;
53618;SDS011;68717;53.040;18.488;2023-09-08T01:14:43;20.75;;;11.25;;
53618;SDS011;68717;53.040;18.488;2023-09-08T01:14:56;21.73;;;11.32;;
53618;SDS011;68717;53.040;18.488;2023-09-08T01:15:08;20.70;;;11.10;;
53618;SDS011;68717;53.040;18.488;2023-09-08T01:15:21;19.17;;;11.07;;
53618;SDS011;68717;53.040;18.488;2023-09-08T01:15:34;18.73;;;11.48;;
53618;SDS011;68717;53.040;18.488;2023-09-08T01:15:47;21.13;;;12.27;;
53618;SDS011;68717;53.040;18.488;2023-09-08T01:16:01;22.90;;;12.77;;
53618;SDS011;68717;53.040;18.488;2023-09-08T01:16:15;22.83;;;12.80;;
53618;SDS011;68717;53.040;18.488;2023-09-08T01:16:28;24.38;;;12.65;;
53618;SDS011;68717;53.040;18.488;2023-09-08T01:16:41;23.67;;;12.65;;
53618;SDS011;68717;53.040;18.488;2023-09-08T01:16:54;21.73;;;12.32;;
53618;SDS011;68717;53.040;18.488;2023-09-08T01:17:06;22.40;;;12.55;;
53618;SDS011;68717;53.040;18.488;2023-09-08T01:17:19;21.55;;;12.38;;